首页
METAR-TAF:

METAR-TAF

机场 :

Wawa, 安大略省, 加拿大

纬度: 47-58N, 经度: 084-47W, 海拔: 287米

当前天气观测

该预报发布于6小时和37分钟前的00:00 UTC
风速2节,风向多变
温度 16°C
湿度 100%
气压 1000 hPa
能見度: 24.1公里
阴天层高于1200英尺

METAR: CYXZ 250000Z VRB02KT 15SM OVC012 16/16 A2952 RMK ST8 LAST OBS/NEXT 251100UTC SLP000 DENSITY ALT 1800FT

时间: 02:37 (06:37 UTC)

预报

该预报发布于10小时和59分钟前的19:38 UTC
预报有效从24日的 20点(UTC)到 24日的 24点(UTC)
风速10节,风向
能見度: 1.2公里
多云层高于800英尺
阴天层高于1200英尺
小阵雨, 轻雾
短暂存在
从 24日的 20点(UTC)到 24日的 22点(UTC)
能見度: 10公里
阴天层高于1200英尺
小阵雨
从 24日的 2200点(UTC)
风速10节,风向东转东南
能見度: 10公里
阴天层高于2500英尺
小阵雨
短暂存在
从 24日的 22点(UTC)到 24日的 24点(UTC)
能見度: 8.0公里
多云层高于700英尺
阴天层高于1500英尺
小阵雨, 轻雾

TAF: CYXZ 241938Z 2420/2424 09010KT 3/4SM -SHRA BR BKN008 OVC012 TEMPO 2420/2422 P6SM -SHRA OVC012 FM242200 12010KT P6SM -SHRA OVC025 TEMPO 2422/2424 5SM -SHRA BR BKN007 OVC015 RMK NXT FCST WILL BE ISSUED AT 251245Z

超过4000个机场的气象观测和天气预报(METAR&TAF报告)。

可查询的气象台以黄色和红色小点在地图上表示。

将鼠标移到小点上方,可查看气象台名称。

然后点击查看天气观测和预报。

如需切换地图:点击带黑十字的绿色按钮放大地图;点击带横线的绿色按钮缩小地图;或者点击绿色箭头查看邻近地区的地图。


METAR-TAF: